createdAt,value
2023-05-12T00:00:11.856Z,83.21
2023-05-12T00:02:39.926Z,84.07
2023-05-12T00:05:08.796Z,84.51
2023-05-12T00:07:39.306Z,85.06
2023-05-12T00:10:08.188Z,85.03
2023-05-12T00:12:36.526Z,84.81
2023-05-12T00:15:06.123Z,84.92
2023-05-12T00:17:34.523Z,84.91
2023-05-12T00:20:02.896Z,84.91
2023-05-12T00:22:32.845Z,83.90
2023-05-12T00:25:02.458Z,83.96
2023-05-12T00:27:32.200Z,83.93
2023-05-12T00:30:00.589Z,83.26
2023-05-12T00:32:28.724Z,83.38
2023-05-12T00:34:57.412Z,82.67
2023-05-12T00:37:25.647Z,83.57
2023-05-12T00:39:53.765Z,83.82
2023-05-12T00:42:23.167Z,82.57
2023-05-12T00:44:53.620Z,82.88
2023-05-12T00:47:24.125Z,82.96
2023-05-12T00:49:55.201Z,83.12
2023-05-12T00:52:26.213Z,82.42
2023-05-12T00:54:54.629Z,83.19
2023-05-12T00:57:26.771Z,82.31
2023-05-12T00:59:55.298Z,82.95
2023-05-12T01:02:23.720Z,83.06
2023-05-12T01:04:52.382Z,82.33
2023-05-12T01:07:23.733Z,81.60
2023-05-12T01:09:56.534Z,82.13
2023-05-12T01:12:27.871Z,82.14
2023-05-12T01:14:57.385Z,81.79
2023-05-12T01:17:30.370Z,83.30
2023-05-12T01:20:01.618Z,83.10
2023-05-12T01:22:33.154Z,83.05
2023-05-12T01:25:04.354Z,82.50
2023-05-12T01:27:35.762Z,83.12
2023-05-12T01:30:05.951Z,83.24
2023-05-12T01:32:34.495Z,82.62
2023-05-12T01:35:03.557Z,81.46
2023-05-12T01:37:31.451Z,82.32
2023-05-12T01:39:59.894Z,82.08
2023-05-12T01:42:28.907Z,82.73
2023-05-12T01:44:58.291Z,82.87
2023-05-12T01:47:26.916Z,82.71
2023-05-12T01:49:55.347Z,82.76
2023-05-12T01:52:25.261Z,82.46
2023-05-12T01:54:53.355Z,81.57
2023-05-12T01:57:21.981Z,82.10
2023-05-12T01:59:50.124Z,82.23
2023-05-12T02:02:19.858Z,83.37
2023-05-12T02:04:48.549Z,83.21
2023-05-12T02:07:16.901Z,82.93
2023-05-12T02:09:44.887Z,83.31
2023-05-12T02:12:13.754Z,82.14
2023-05-12T02:14:41.910Z,82.57
2023-05-12T02:17:09.964Z,81.66
2023-05-12T02:19:39.672Z,83.20
2023-05-12T02:22:08.018Z,82.17
2023-05-12T02:24:36.046Z,82.42
2023-05-12T02:27:04.707Z,82.31
2023-05-12T02:29:32.968Z,82.10
2023-05-12T02:32:01.715Z,82.29
2023-05-12T02:34:30.941Z,82.44
2023-05-12T02:37:00.706Z,83.22
2023-05-12T02:39:28.749Z,82.35
2023-05-12T02:41:57.284Z,81.12
2023-05-12T02:44:27.242Z,82.64
2023-05-12T02:46:58.533Z,82.35
2023-05-12T02:49:26.468Z,81.76
2023-05-12T02:51:55.634Z,82.40
2023-05-12T02:54:24.981Z,82.51
2023-05-12T02:56:53.368Z,83.54
2023-05-12T02:59:22.298Z,83.26
2023-05-12T03:01:50.540Z,83.84
2023-05-12T03:04:19.340Z,84.21
2023-05-12T03:06:47.808Z,84.34
2023-05-12T03:09:16.675Z,84.13
2023-05-12T03:11:46.632Z,84.58
2023-05-12T03:14:15.452Z,83.59
2023-05-12T03:16:44.031Z,83.42
2023-05-12T03:19:12.105Z,83.23
2023-05-12T03:21:40.826Z,83.90
2023-05-12T03:24:09.649Z,84.38
2023-05-12T03:26:38.227Z,85.10
2023-05-12T03:29:08.036Z,84.65
2023-05-12T03:31:36.836Z,84.53
2023-05-12T03:34:04.905Z,85.20
2023-05-12T03:36:33.108Z,85.62
2023-05-12T03:39:03.321Z,85.57
2023-05-12T03:41:31.367Z,85.74
2023-05-12T03:44:01.264Z,85.83
2023-05-12T03:46:31.873Z,85.67
2023-05-12T03:48:59.956Z,86.82
2023-05-12T03:51:28.329Z,86.17
2023-05-12T03:53:56.843Z,86.18
2023-05-12T03:56:24.926Z,85.21
2023-05-12T03:58:52.961Z,84.69
2023-05-12T04:01:21.344Z,85.38
2023-05-12T04:03:50.971Z,83.84
2023-05-12T04:06:19.133Z,84.34
2023-05-12T04:08:47.533Z,83.57
2023-05-12T04:11:18.789Z,83.83
2023-05-12T04:13:46.864Z,85.00
2023-05-12T04:16:15.419Z,84.18
2023-05-12T04:18:43.436Z,83.52
2023-05-12T04:21:13.006Z,83.07
2023-05-12T04:23:41.647Z,82.39
2023-05-12T04:26:09.965Z,82.15
2023-05-12T04:28:38.498Z,82.79
2023-05-12T04:31:07.359Z,82.91
2023-05-12T04:33:35.539Z,82.64
2023-05-12T04:36:03.783Z,82.82
2023-05-12T04:38:33.717Z,82.12
2023-05-12T04:41:02.114Z,81.60
2023-05-12T04:46:06.593Z,84.59
2023-05-12T04:48:34.958Z,85.53
2023-05-12T04:51:02.982Z,84.85
2023-05-12T04:53:35.055Z,84.85
2023-05-12T04:56:03.979Z,84.09
2023-05-12T04:58:31.977Z,83.71
2023-05-12T05:01:03.681Z,83.91
2023-05-12T05:03:31.990Z,83.15
2023-05-12T05:06:02.572Z,82.78
2023-05-12T05:08:31.002Z,82.76
2023-05-12T05:11:00.411Z,82.26
2023-05-12T05:13:28.523Z,81.95
2023-05-12T05:15:57.129Z,81.66
2023-05-12T05:18:25.632Z,80.84
2023-05-12T05:20:58.544Z,82.13
2023-05-12T05:23:27.894Z,81.73
2023-05-12T05:25:56.261Z,81.26
2023-05-12T05:28:28.450Z,80.34
2023-05-12T05:30:56.704Z,80.00
2023-05-12T05:33:25.231Z,81.98
2023-05-12T05:35:55.117Z,80.74
2023-05-12T05:38:23.569Z,80.20
2023-05-12T05:40:54.236Z,79.34
2023-05-12T05:43:23.695Z,80.19
2023-05-12T05:45:53.094Z,79.27
2023-05-12T05:48:21.959Z,78.40
2023-05-12T05:50:52.058Z,76.74
2023-05-12T05:53:23.057Z,76.32
2023-05-12T05:55:51.643Z,81.04
2023-05-12T05:58:19.704Z,78.31
2023-05-12T06:00:47.899Z,79.95
2023-05-12T06:03:18.255Z,81.83
2023-05-12T06:05:47.884Z,79.27
2023-05-12T06:08:16.888Z,84.36
2023-05-12T06:10:45.727Z,80.89
2023-05-12T06:13:13.887Z,77.88
2023-05-12T06:15:42.075Z,71.84
2023-05-12T06:18:12.392Z,77.91
2023-05-12T06:20:42.358Z,71.38
2023-05-12T06:23:10.960Z,67.03
2023-05-12T06:25:39.781Z,73.92
2023-05-12T06:28:08.540Z,68.41
2023-05-12T06:30:36.807Z,68.18
2023-05-12T06:33:05.656Z,72.23
2023-05-12T06:35:33.994Z,67.59
2023-05-12T06:38:03.326Z,68.82
2023-05-12T06:40:31.678Z,65.71
2023-05-12T06:42:59.767Z,67.40
2023-05-12T06:45:27.911Z,68.35
2023-05-12T06:47:58.045Z,64.34
2023-05-12T06:50:26.559Z,64.13
2023-05-12T06:52:54.581Z,65.06
2023-05-12T06:55:24.941Z,67.53
2023-05-12T06:57:56.159Z,68.06
2023-05-12T07:00:24.861Z,62.46
2023-05-12T07:02:54.969Z,64.38
2023-05-12T07:05:24.769Z,61.50
2023-05-12T07:07:53.379Z,67.70
2023-05-12T07:10:22.651Z,67.13
2023-05-12T07:12:52.396Z,61.92
2023-05-12T07:15:20.977Z,59.52
2023-05-12T07:17:50.302Z,62.92
2023-05-12T07:20:19.453Z,64.01
2023-05-12T07:22:48.757Z,62.47
2023-05-12T07:25:18.087Z,62.10
2023-05-12T07:27:47.228Z,62.42
2023-05-12T07:30:18.093Z,57.06
2023-05-12T07:32:46.327Z,60.80
2023-05-12T07:35:14.413Z,58.60
2023-05-12T07:37:43.003Z,52.96
2023-05-12T07:40:11.552Z,47.26
2023-05-12T07:42:39.734Z,47.64
2023-05-12T07:45:09.240Z,48.19
2023-05-12T07:47:40.110Z,52.61
2023-05-12T07:50:08.772Z,50.89
2023-05-12T07:52:38.204Z,49.58
2023-05-12T07:55:07.285Z,46.03
2023-05-12T07:57:35.459Z,46.50
2023-05-12T08:00:05.699Z,44.89
2023-05-12T08:02:34.312Z,40.34
2023-05-12T08:05:04.807Z,40.59
2023-05-12T08:07:33.860Z,44.31
2023-05-12T08:10:02.148Z,43.85
2023-05-12T08:12:31.233Z,42.76
2023-05-12T08:14:59.846Z,40.81
2023-05-12T08:17:29.259Z,38.20
2023-05-12T08:19:57.968Z,40.45
2023-05-12T08:22:27.611Z,38.42
2023-05-12T08:24:56.097Z,37.81
2023-05-12T08:27:24.463Z,37.28
2023-05-12T08:29:52.747Z,36.02
2023-05-12T08:32:21.128Z,39.15
2023-05-12T08:34:50.062Z,36.06
2023-05-12T08:37:18.840Z,37.34
2023-05-12T08:39:48.578Z,37.53
2023-05-12T08:42:31.986Z,40.90
2023-05-12T08:45:02.138Z,38.67
2023-05-12T08:47:33.635Z,38.33
2023-05-12T08:50:04.414Z,39.29
2023-05-12T08:52:37.330Z,37.50
2023-05-12T08:55:08.342Z,40.37
2023-05-12T08:57:39.783Z,39.91
2023-05-12T09:00:10.917Z,42.78
2023-05-12T09:02:51.937Z,43.25
2023-05-12T09:05:21.276Z,39.78
2023-05-12T09:07:52.205Z,40.52
2023-05-12T09:10:33.607Z,44.42
2023-05-12T09:13:06.301Z,44.92
2023-05-12T09:15:40.918Z,42.61
2023-05-12T09:18:09.866Z,44.58
2023-05-12T09:20:38.568Z,45.35
2023-05-12T09:23:15.945Z,44.69
2023-05-12T09:25:47.089Z,43.32
2023-05-12T09:28:16.818Z,40.91
2023-05-12T09:30:45.196Z,43.69
2023-05-12T09:33:15.042Z,40.10
2023-05-12T09:35:45.245Z,43.85
2023-05-12T09:38:14.836Z,42.33
2023-05-12T09:40:44.367Z,41.17
2023-05-12T09:43:17.956Z,41.58
2023-05-12T09:45:50.295Z,43.33
2023-05-12T09:48:19.523Z,43.90
2023-05-12T09:50:50.576Z,44.51
2023-05-12T09:53:20.257Z,43.57
2023-05-12T09:55:49.953Z,40.37
2023-05-12T09:58:22.026Z,39.67
2023-05-12T10:03:28.000Z,41.32
2023-05-12T10:06:00.282Z,41.43
2023-05-12T10:08:36.861Z,41.43
2023-05-12T10:11:07.176Z,41.17
2023-05-12T10:13:37.300Z,41.32
2023-05-12T10:16:06.824Z,40.96
2023-05-12T10:18:36.159Z,39.33
2023-05-12T10:21:05.619Z,39.40
2023-05-12T10:23:37.769Z,40.93
2023-05-12T10:26:07.978Z,40.85
2023-05-12T10:28:37.907Z,39.94
2023-05-12T10:31:08.892Z,41.03
2023-05-12T10:33:37.503Z,39.38
2023-05-12T10:36:06.609Z,41.33
2023-05-12T10:38:38.680Z,38.38
2023-05-12T10:41:08.615Z,41.31
2023-05-12T10:43:44.529Z,41.09
2023-05-12T10:46:18.779Z,41.22
2023-05-12T10:48:56.486Z,40.80
2023-05-12T10:51:28.848Z,41.05
2023-05-12T10:54:02.246Z,38.65
2023-05-12T10:56:32.654Z,39.51
2023-05-12T10:59:14.768Z,40.46
2023-05-12T11:01:44.627Z,41.07
2023-05-12T11:04:16.286Z,40.09
2023-05-12T11:06:47.116Z,42.36
2023-05-12T11:09:17.667Z,41.98
2023-05-12T11:11:47.643Z,41.97
2023-05-12T11:14:19.790Z,41.00
2023-05-12T11:16:48.273Z,39.45
2023-05-12T11:19:20.398Z,42.74
2023-05-12T11:21:50.013Z,44.84
2023-05-12T11:24:18.957Z,41.69
2023-05-12T11:26:51.795Z,41.95
2023-05-12T11:29:22.775Z,42.25
2023-05-12T11:31:52.206Z,39.68
2023-05-12T11:34:23.682Z,40.09
2023-05-12T11:36:53.716Z,41.44
2023-05-12T11:39:24.029Z,40.59
2023-05-12T11:41:59.297Z,40.32
2023-05-12T11:44:35.870Z,39.12
2023-05-12T11:47:12.106Z,39.14
2023-05-12T11:49:48.408Z,40.07
2023-05-12T11:52:22.932Z,41.78
2023-05-12T11:54:52.254Z,40.20
2023-05-12T11:57:28.320Z,42.39
2023-05-12T12:00:03.012Z,41.16
2023-05-12T12:02:31.736Z,41.10
2023-05-12T12:04:59.938Z,40.71
2023-05-12T12:07:32.672Z,42.55
2023-05-12T12:10:11.844Z,40.82
2023-05-12T12:12:40.674Z,43.25
2023-05-12T12:15:11.074Z,41.19
2023-05-12T12:17:39.843Z,42.81
2023-05-12T12:20:10.556Z,41.16
2023-05-12T12:22:38.683Z,41.57
2023-05-12T12:25:08.157Z,40.83
2023-05-12T12:27:36.750Z,40.48
2023-05-12T12:30:05.271Z,41.50
2023-05-12T12:32:34.820Z,38.54
2023-05-12T12:35:04.812Z,37.97
2023-05-12T12:37:33.303Z,38.73
2023-05-12T12:40:08.480Z,39.49
2023-05-12T12:42:37.722Z,37.81
2023-05-12T12:45:06.838Z,35.39
2023-05-12T12:47:37.344Z,40.27
2023-05-12T12:50:05.915Z,38.44
2023-05-12T12:52:34.657Z,38.57
2023-05-12T12:55:03.375Z,39.38
2023-05-12T12:57:32.643Z,37.40
2023-05-12T13:00:01.447Z,37.97
2023-05-12T13:02:30.131Z,39.12
2023-05-12T13:05:03.779Z,38.77
2023-05-12T13:07:35.500Z,39.24
2023-05-12T13:10:03.922Z,39.57
2023-05-12T13:12:33.083Z,40.44
2023-05-12T13:15:02.214Z,39.85
2023-05-12T13:17:30.486Z,40.84
2023-05-12T13:20:00.555Z,42.26
2023-05-12T13:22:29.150Z,42.32
2023-05-12T13:24:57.686Z,41.13
2023-05-12T13:27:26.517Z,41.59
2023-05-12T13:29:54.768Z,42.07
2023-05-12T13:32:23.055Z,43.08
2023-05-12T13:34:51.637Z,41.74
2023-05-12T13:37:21.499Z,42.50
2023-05-12T13:39:49.941Z,42.54
2023-05-12T13:42:18.738Z,44.32
2023-05-12T13:44:47.155Z,43.74
2023-05-12T13:47:15.723Z,43.68
2023-05-12T13:49:44.147Z,44.19
2023-05-12T13:52:12.288Z,43.73
2023-05-12T13:54:42.411Z,43.22
2023-05-12T13:57:11.296Z,43.03
2023-05-12T13:59:39.570Z,42.98
2023-05-12T14:02:09.731Z,42.60
2023-05-12T14:04:38.723Z,42.72
2023-05-12T14:07:08.574Z,43.57
2023-05-12T14:09:37.732Z,43.88
2023-05-12T14:12:09.659Z,44.58
2023-05-12T14:14:37.811Z,44.99
2023-05-12T14:17:07.244Z,43.86
2023-05-12T14:19:36.890Z,45.26
2023-05-12T14:22:09.948Z,45.12
2023-05-12T14:24:47.367Z,44.06
2023-05-12T14:27:17.086Z,45.09
2023-05-12T14:29:45.152Z,44.52
2023-05-12T14:32:14.130Z,44.85
2023-05-12T14:34:42.195Z,45.30
2023-05-12T14:37:10.309Z,45.33
2023-05-12T14:39:39.040Z,44.65
2023-05-12T14:42:07.677Z,45.53
2023-05-12T14:44:39.658Z,45.05
2023-05-12T14:47:08.976Z,46.30
2023-05-12T14:49:38.535Z,47.83
2023-05-12T14:52:07.876Z,47.25
2023-05-12T14:54:36.112Z,45.12
2023-05-12T14:57:05.364Z,44.37
2023-05-12T14:59:34.301Z,43.51
2023-05-12T15:02:03.832Z,45.67
2023-05-12T15:04:32.294Z,43.48
2023-05-12T15:07:00.878Z,44.23
2023-05-12T15:09:29.560Z,44.47
2023-05-12T15:11:57.939Z,43.80
2023-05-12T15:14:26.866Z,44.07
2023-05-12T15:16:55.276Z,43.72
2023-05-12T15:19:24.916Z,42.22
2023-05-12T15:21:53.396Z,41.98
2023-05-12T15:24:21.569Z,41.01
2023-05-12T15:26:49.990Z,42.63
2023-05-12T15:29:18.785Z,43.19
2023-05-12T15:31:49.145Z,42.58
2023-05-12T15:34:17.876Z,43.71
2023-05-12T15:36:49.325Z,44.12
2023-05-12T15:39:17.507Z,44.57
2023-05-12T15:41:45.799Z,44.17
2023-05-12T15:44:14.472Z,42.92
2023-05-12T15:46:42.930Z,44.03
2023-05-12T15:49:11.210Z,44.47
2023-05-12T15:51:40.204Z,43.97
2023-05-12T15:54:10.370Z,43.80
2023-05-12T15:56:38.922Z,44.04
2023-05-12T15:59:07.917Z,43.64
2023-05-12T16:01:36.246Z,44.74
2023-05-12T16:04:04.702Z,45.14
2023-05-12T16:06:33.262Z,46.68
2023-05-12T16:09:01.412Z,44.20
2023-05-12T16:11:30.927Z,43.65
2023-05-12T16:14:00.965Z,44.69
2023-05-12T16:16:29.131Z,44.95
2023-05-12T16:18:57.922Z,45.39
2023-05-12T16:21:26.155Z,44.04
2023-05-12T16:23:54.260Z,44.53
2023-05-12T16:26:23.880Z,45.58
2023-05-12T16:28:54.076Z,44.27
2023-05-12T16:31:22.620Z,46.43
2023-05-12T16:33:51.203Z,45.26
2023-05-12T16:36:19.877Z,44.22
2023-05-12T16:38:48.377Z,45.87
2023-05-12T16:41:16.979Z,46.66
2023-05-12T16:43:45.107Z,46.26
2023-05-12T16:46:15.020Z,45.87
2023-05-12T16:48:43.904Z,46.48
2023-05-12T16:51:12.618Z,46.94
2023-05-12T16:53:41.099Z,46.50
2023-05-12T16:56:09.805Z,46.49
2023-05-12T16:58:38.197Z,46.57
2023-05-12T17:01:06.629Z,46.64
2023-05-12T17:03:36.969Z,45.98
2023-05-12T17:06:05.517Z,45.54
2023-05-12T17:08:36.026Z,45.87
2023-05-12T17:11:06.332Z,45.47
2023-05-12T17:13:37.185Z,44.96
2023-05-12T17:16:06.274Z,45.06
2023-05-12T17:19:13.666Z,45.14
2023-05-12T17:21:24.055Z,46.69
2023-05-12T17:23:53.460Z,46.36
2023-05-12T17:26:23.076Z,45.96
2023-05-12T17:28:51.677Z,46.96
2023-05-12T17:31:20.396Z,46.52
2023-05-12T17:33:49.784Z,46.79
2023-05-12T17:36:18.678Z,47.37
2023-05-12T17:38:47.766Z,48.73
2023-05-12T17:41:16.245Z,47.84
2023-05-12T17:43:44.405Z,48.96
2023-05-12T17:46:13.011Z,49.00
2023-05-12T17:48:41.174Z,49.98
2023-05-12T17:51:10.431Z,49.44
2023-05-12T17:53:39.153Z,49.08
2023-05-12T17:56:07.579Z,50.14
2023-05-12T17:58:36.229Z,51.09
2023-05-12T18:01:04.409Z,51.77
2023-05-12T18:03:32.518Z,51.50
2023-05-12T18:06:00.486Z,51.45
2023-05-12T18:08:30.320Z,52.32
2023-05-12T18:10:58.482Z,52.00
2023-05-12T18:13:26.706Z,51.13
2023-05-12T18:15:55.196Z,51.39
2023-05-12T18:18:24.617Z,50.40
2023-05-12T18:20:52.928Z,52.08
2023-05-12T18:23:21.351Z,50.86
2023-05-12T18:25:51.168Z,51.87
2023-05-12T18:28:19.260Z,52.62
2023-05-12T18:30:48.147Z,52.58
2023-05-12T18:33:16.380Z,52.24
2023-05-12T18:35:44.656Z,53.02
2023-05-12T18:38:13.174Z,53.04
2023-05-12T18:40:41.423Z,53.42
2023-05-12T18:43:11.271Z,54.22
2023-05-12T18:45:40.045Z,54.27
2023-05-12T18:48:08.380Z,54.92
2023-05-12T18:50:36.654Z,54.16
2023-05-12T18:53:05.248Z,55.35
2023-05-12T18:55:33.374Z,54.41
2023-05-12T18:58:02.047Z,56.57
2023-05-12T19:00:35.178Z,56.14
2023-05-12T19:03:03.653Z,55.99
2023-05-12T19:05:32.333Z,56.02
2023-05-12T19:08:00.886Z,55.66
2023-05-12T19:10:28.884Z,56.42
2023-05-12T19:12:57.020Z,56.58
2023-05-12T19:15:26.049Z,56.51
2023-05-12T19:17:55.856Z,56.89
2023-05-12T19:20:24.621Z,57.25
2023-05-12T19:22:53.410Z,57.65
2023-05-12T19:25:22.419Z,57.08
2023-05-12T19:27:51.087Z,57.46
2023-05-12T19:30:19.975Z,57.50
2023-05-12T19:32:50.206Z,57.14
2023-05-12T19:35:31.051Z,56.90
2023-05-12T19:37:59.216Z,58.09
2023-05-12T19:40:27.415Z,56.79
2023-05-12T19:42:56.666Z,56.41
2023-05-12T19:45:25.522Z,57.63
2023-05-12T19:47:54.510Z,56.49
2023-05-12T19:50:24.884Z,56.75
2023-05-12T19:52:53.579Z,57.06
2023-05-12T19:55:24.091Z,57.25
2023-05-12T19:57:53.196Z,55.96
2023-05-12T20:00:22.330Z,55.85
2023-05-12T20:02:51.277Z,56.57
2023-05-12T20:05:19.944Z,56.43
2023-05-12T20:07:49.789Z,56.71
2023-05-12T20:10:18.369Z,56.84
2023-05-12T20:12:46.297Z,57.87
2023-05-12T20:15:14.428Z,57.28
2023-05-12T20:17:42.692Z,56.11
2023-05-12T20:20:12.587Z,57.00
2023-05-12T20:22:41.088Z,57.52
2023-05-12T20:25:14.371Z,56.44
2023-05-12T20:27:42.632Z,56.13
2023-05-12T20:30:12.141Z,56.38
2023-05-12T20:32:40.549Z,56.86
2023-05-12T20:35:09.332Z,56.33
2023-05-12T20:37:38.771Z,56.92
2023-05-12T20:40:08.356Z,56.17
2023-05-12T20:42:37.864Z,56.84
2023-05-12T20:47:53.276Z,56.09
2023-05-12T20:50:23.744Z,55.32
2023-05-12T20:52:52.114Z,56.12
2023-05-12T20:55:21.248Z,55.56
2023-05-12T20:57:51.334Z,55.39
2023-05-12T21:00:20.390Z,56.48
2023-05-12T21:02:52.612Z,57.63
2023-05-12T21:05:21.143Z,56.94
2023-05-12T21:07:49.368Z,57.15
2023-05-12T21:10:18.060Z,57.73
2023-05-12T21:12:46.181Z,57.37
2023-05-12T21:15:15.800Z,57.23
2023-05-12T21:17:44.262Z,58.63
2023-05-12T21:20:13.470Z,58.81
2023-05-12T21:22:41.747Z,59.25
2023-05-12T21:25:10.808Z,60.23
2023-05-12T21:27:41.526Z,58.56
2023-05-12T21:30:11.688Z,60.73
2023-05-12T21:32:41.350Z,60.27
2023-05-12T21:35:10.158Z,61.18
2023-05-12T21:37:38.922Z,59.65
2023-05-12T21:40:08.463Z,61.10
2023-05-12T21:42:36.622Z,60.74
2023-05-12T21:45:05.943Z,59.83
2023-05-12T21:47:34.211Z,60.08
2023-05-12T21:50:04.526Z,60.15
2023-05-12T21:52:33.623Z,59.77
2023-05-12T21:55:04.973Z,59.41
2023-05-12T21:57:33.768Z,59.44
2023-05-12T22:00:04.177Z,59.38
2023-05-12T22:02:32.700Z,59.69
2023-05-12T22:05:01.592Z,59.82
2023-05-12T22:07:31.655Z,59.37
2023-05-12T22:09:59.780Z,58.72
2023-05-12T22:12:28.521Z,59.16
2023-05-12T22:14:56.586Z,58.84
2023-05-12T22:17:24.934Z,58.66
2023-05-12T22:19:53.356Z,60.11
2023-05-12T22:22:21.973Z,59.05
2023-05-12T22:24:52.181Z,58.48
2023-05-12T22:27:22.772Z,58.69
2023-05-12T22:29:50.994Z,58.99
2023-05-12T22:32:18.817Z,59.25
2023-05-12T22:34:47.266Z,58.91
2023-05-12T22:37:15.304Z,58.91
2023-05-12T22:39:43.372Z,58.59
2023-05-12T22:42:12.966Z,58.90
2023-05-12T22:44:40.867Z,59.78
2023-05-12T22:47:08.936Z,59.26
2023-05-12T22:49:37.880Z,59.94
2023-05-12T22:52:06.597Z,60.08
2023-05-12T22:54:34.879Z,59.46
2023-05-12T22:57:03.580Z,60.00
2023-05-12T22:59:33.134Z,59.98
2023-05-12T23:02:01.194Z,61.02
2023-05-12T23:04:29.743Z,61.83
2023-05-12T23:06:57.809Z,60.60
2023-05-12T23:09:26.141Z,60.57
2023-05-12T23:11:54.547Z,60.24
2023-05-12T23:14:22.752Z,59.64
2023-05-12T23:16:52.121Z,59.72
2023-05-12T23:19:20.562Z,59.70
2023-05-12T23:21:48.656Z,59.90
2023-05-12T23:24:17.010Z,59.94
2023-05-12T23:26:45.367Z,59.80
2023-05-12T23:29:13.426Z,60.02
2023-05-12T23:31:42.427Z,59.78
2023-05-12T23:34:12.214Z,59.61
2023-05-12T23:36:40.170Z,59.30
2023-05-12T23:39:10.169Z,58.89
2023-05-12T23:41:38.344Z,59.73
2023-05-12T23:44:06.735Z,59.09
2023-05-12T23:46:35.298Z,59.25
2023-05-12T23:49:03.689Z,58.59
2023-05-12T23:51:34.523Z,59.31
2023-05-12T23:54:03.205Z,59.15
2023-05-12T23:56:31.427Z,59.57
2023-05-12T23:58:59.759Z,59.36
